^^
Datos históricos de la estación: Murcia-Puente Tocinos
Diario Informe para Febrero 20, 2019 Unidades:  Ambas    Ingés   Métrico
Diario Semanal Mensual Anual
  Máxima: Mínima: Promedio:
Temperatura: 89.4 °F /  31.9 °C 75.9 °F /  24.4 °C 81.9 °F /  27.7 °C
Punto de rocio: 73.9 °F /  23.3 °C 68 °F /  20 °C 71.4 °F /  21.9 °C
Humedad: 89% 51.1% 72%
Velocidad viento: 14mph /  22.5km/h - 5.4mph /  8.7km/h
Racha viento: 25.3mph /  40.7km/h - -
Viento- - Este
Presión: 30 in /  1016.9 hPa 29.9 in /  1012.1 hPa -
Precipitación: 0 in /  0.0 mm    
 
 
Tabla de datos para Febrero 20, 2019
Hora Temperatura Punto de rocio Presión Viento Velocidad viento Racha viento Humedad Intensidad lluvia(por hora) Nubes
00:04 80.1 °F /  26.7 °C 73.8 °F /  23.2 °C 29.9in /  1013.0hPa NE 4mph /  6.5km/h 7mph /  11.3km/h 81% 0in /  0.0mm
00:09 80.1 °F /  26.7 °C 73.8 °F /  23.2 °C 29.9in /  1013.0hPa NE 3.9mph /  6.3km/h 7mph /  11.3km/h 81% 0in /  0.0mm
00:14 80.1 °F /  26.7 °C 73.8 °F /  23.2 °C 29.9in /  1013.0hPa NE 3.6mph /  5.8km/h 6.9mph /  11.1km/h 81% 0in /  0.0mm
00:19 80.1 °F /  26.7 °C 73.8 °F /  23.2 °C 29.9in /  1013.1hPa NNE 3.6mph /  5.8km/h 7mph /  11.3km/h 81% 0in /  0.0mm
00:24 80.1 °F /  26.7 °C 73.8 °F /  23.2 °C 29.9in /  1013.1hPa NNO 3.6mph /  5.8km/h 5mph /  8km/h 81.3% 0in /  0.0mm
00:29 80.1 °F /  26.7 °C 73.8 °F /  23.2 °C 29.9in /  1013.1hPa NNE 3.4mph /  5.4km/h 5mph /  8km/h 81.2% 0in /  0.0mm
00:34 79.9 °F /  26.6 °C 73.9 °F /  23.3 °C 29.9in /  1013.1hPa North 2.4mph /  3.9km/h 5mph /  8km/h 82% 0in /  0.0mm
00:39 79.9 °F /  26.6 °C 73.9 °F /  23.3 °C 29.9in /  1013.1hPa NNE 2.5mph /  4km/h 5mph /  8km/h 82% 0in /  0.0mm
00:44 79.9 °F /  26.6 °C 73.9 °F /  23.3 °C 29.9in /  1013.1hPa NE 2.9mph /  4.7km/h 5.2mph /  8.4km/h 82% 0in /  0.0mm
00:49 79.9 °F /  26.6 °C 73.8 °F /  23.2 °C 29.9in /  1013.1hPa NE 2.9mph /  4.7km/h 5mph /  8km/h 82% 0in /  0.0mm
00:54 79.7 °F /  26.5 °C 73.8 °F /  23.2 °C 29.9in /  1013.1hPa NNE 3.1mph /  5km/h 5mph /  8km/h 82% 0in /  0.0mm
00:59 79.7 °F /  26.5 °C 73.8 °F /  23.2 °C 29.9in /  1013.1hPa NE 2.9mph /  4.7km/h 5.2mph /  8.4km/h 82% 0in /  0.0mm
01:04 79.7 °F /  26.5 °C 73.6 °F /  23.1 °C 29.9in /  1013.1hPa NE 2.4mph /  3.9km/h 5mph /  8km/h 81.5% 0in /  0.0mm
01:09 79.7 °F /  26.5 °C 73.4 °F /  23 °C 29.9in /  1013.0hPa NE 2.4mph /  3.9km/h 5mph /  8km/h 81% 0in /  0.0mm
01:14 79.7 °F /  26.5 °C 73.4 °F /  23 °C 29.9in /  1013.0hPa ENE 2.4mph /  3.9km/h 5mph /  8km/h 81% 0in /  0.0mm
01:19 79.7 °F /  26.5 °C 73.4 °F /  23 °C 29.9in /  1013.1hPa NE 2.3mph /  3.7km/h 5mph /  8km/h 81% 0in /  0.0mm
01:24 79.9 °F /  26.6 °C 73.4 °F /  23 °C 29.9in /  1013.1hPa ENE 2mph /  3.2km/h 5mph /  8km/h 81% 0in /  0.0mm
01:29 79.7 °F /  26.5 °C 73.4 °F /  23 °C 29.9in /  1013.1hPa NE 2mph /  3.2km/h 4.6mph /  7.4km/h 81% 0in /  0.0mm
01:34 79.7 °F /  26.5 °C 73.2 °F /  22.9 °C 29.9in /  1013.1hPa NE 2mph /  3.2km/h 5mph /  8km/h 81% 0in /  0.0mm
01:39 79.7 °F /  26.5 °C 73.2 °F /  22.9 °C 29.9in /  1012.9hPa NE 2.1mph /  3.4km/h 5mph /  8km/h 81% 0in /  0.0mm
01:44 79.7 °F /  26.5 °C 73.2 °F /  22.9 °C 29.9in /  1012.9hPa NNE 2.4mph /  3.9km/h 5mph /  8km/h 81% 0in /  0.0mm
01:49 79.5 °F /  26.4 °C 73.2 °F /  22.9 °C 29.9in /  1012.9hPa NE 2.5mph /  4km/h 5.2mph /  8.4km/h 81% 0in /  0.0mm
01:54 79.5 °F /  26.4 °C 73.2 °F /  22.9 °C 29.9in /  1012.8hPa NE 2.9mph /  4.7km/h 5.2mph /  8.4km/h 81% 0in /  0.0mm
01:59 79.5 °F /  26.4 °C 73.2 °F /  22.9 °C 29.9in /  1012.8hPa NNE 3mph /  4.9km/h 6.2mph /  10km/h 81.3% 0in /  0.0mm
02:04 79.3 °F /  26.3 °C 73.4 °F /  23 °C 29.9in /  1012.8hPa NNE 3.6mph /  5.8km/h 6mph /  9.7km/h 82% 0in /  0.0mm
02:09 79.3 °F /  26.3 °C 73.4 °F /  23 °C 29.9in /  1012.6hPa NNE 3.4mph /  5.5km/h 6mph /  9.7km/h 82% 0in /  0.0mm
02:14 79.2 °F /  26.2 °C 73.2 °F /  22.9 °C 29.9in /  1012.6hPa NNE 2.9mph /  4.7km/h 6mph /  9.7km/h 82.1% 0in /  0.0mm
02:19 79.2 °F /  26.2 °C 73.6 °F /  23.1 °C 29.9in /  1012.7hPa NNE 2.8mph /  4.5km/h 5mph /  8km/h 83% 0in /  0.0mm
02:24 79.2 °F /  26.2 °C 73.6 °F /  23.1 °C 29.9in /  1012.7hPa NE 2.4mph /  3.9km/h 5mph /  8km/h 83% 0in /  0.0mm
02:29 79 °F /  26.1 °C 73.4 °F /  23 °C 29.9in /  1012.7hPa NE 2.4mph /  3.9km/h 5mph /  8km/h 83% 0in /  0.0mm
02:34 79 °F /  26.1 °C 73.4 °F /  23 °C 29.9in /  1012.7hPa NE 2.4mph /  3.9km/h 5mph /  8km/h 83% 0in /  0.0mm
02:39 79 °F /  26.1 °C 73.4 °F /  23 °C 29.9in /  1012.7hPa NE 2.5mph /  4km/h 5mph /  8km/h 83.2% 0in /  0.0mm
02:44 79 °F /  26.1 °C 73.8 °F /  23.2 °C 29.9in /  1012.7hPa NE 2.9mph /  4.7km/h 5.8mph /  9.3km/h 84% 0in /  0.0mm
02:49 78.8 °F /  26 °C 73.6 °F /  23.1 °C 29.9in /  1012.7hPa NE 2.9mph /  4.7km/h 6mph /  9.7km/h 84% 0in /  0.0mm
02:54 78.6 °F /  25.9 °C 73.4 °F /  23 °C 29.9in /  1012.7hPa NNE 2.9mph /  4.7km/h 5mph /  8km/h 84% 0in /  0.0mm
02:59 78.6 °F /  25.9 °C 73.6 °F /  23.1 °C 29.9in /  1012.7hPa NNE 2.6mph /  4.2km/h 5mph /  8km/h 84.8% 0in /  0.0mm
03:04 78.6 °F /  25.9 °C 73.8 °F /  23.2 °C 29.9in /  1012.7hPa NNO 1.8mph /  2.9km/h 5mph /  8km/h 85% 0in /  0.0mm
03:09 78.6 °F /  25.9 °C 73.8 °F /  23.2 °C 29.9in /  1012.7hPa NO 1.9mph /  3km/h 5mph /  8km/h 85% 0in /  0.0mm
03:14 78.6 °F /  25.9 °C 73.4 °F /  23 °C 29.9in /  1012.7hPa NO 2mph /  3.2km/h 4mph /  6.4km/h 84.2% 0in /  0.0mm
03:19 78.6 °F /  25.9 °C 73.4 °F /  23 °C 29.9in /  1012.8hPa NO 1.6mph /  2.5km/h   84% 0in /  0.0mm
03:24 78.6 °F /  25.9 °C 73.6 °F /  23.1 °C 29.9in /  1012.8hPa Calm     84.6% 0in /  0.0mm
03:29 78.6 °F /  25.9 °C 73.8 °F /  23.2 °C 29.9in /  1012.8hPa Calm     85% 0in /  0.0mm
03:34 78.6 °F /  25.9 °C 73.8 °F /  23.2 °C 29.9in /  1012.8hPa Calm     85% 0in /  0.0mm
03:39 78.6 °F /  25.9 °C 73.8 °F /  23.2 °C 29.9in /  1012.7hPa Calm   3.1mph /  5km/h 85% 0in /  0.0mm
03:44 78.6 °F /  25.9 °C 73.8 °F /  23.2 °C 29.9in /  1012.7hPa Calm   4.3mph /  6.9km/h 85% 0in /  0.0mm
03:49 78.4 °F /  25.8 °C 73.6 °F /  23.1 °C 29.9in /  1012.7hPa ESE 0.6mph /  0.9km/h 5mph /  8km/h 85% 0in /  0.0mm
03:54 78.4 °F /  25.8 °C 73.6 °F /  23.1 °C 29.9in /  1012.5hPa Este 2.4mph /  3.9km/h 5mph /  8km/h 85% 0in /  0.0mm
03:59 78.3 °F /  25.7 °C 73.6 °F /  23.1 °C 29.9in /  1012.5hPa Este 2.5mph /  4.1km/h 5mph /  8km/h 85% 0in /  0.0mm
04:04 78.3 °F /  25.7 °C 73.6 °F /  23.1 °C 29.9in /  1012.5hPa ESE 3.1mph /  5km/h 5mph /  8km/h 85.6% 0in /  0.0mm
04:09 78.3 °F /  25.7 °C 73.6 °F /  23.1 °C 29.9in /  1012.4hPa ESE 3mph /  4.8km/h 5mph /  8km/h 85.7% 0in /  0.0mm
04:14 78.1 °F /  25.6 °C 73.4 °F /  23 °C 29.9in /  1012.4hPa ESE 2.4mph /  3.9km/h 5mph /  8km/h 85.8% 0in /  0.0mm
04:19 78.1 °F /  25.6 °C 73.6 °F /  23.1 °C 29.9in /  1012.4hPa ENE 2.3mph /  3.7km/h 5mph /  8km/h 86% 0in /  0.0mm
04:24 78.1 °F /  25.6 °C 73.4 °F /  23 °C 29.9in /  1012.3hPa NE 2mph /  3.2km/h 5mph /  8km/h 86% 0in /  0.0mm
04:29 77.9 °F /  25.5 °C 73.4 °F /  23 °C 29.9in /  1012.3hPa NE 2mph /  3.2km/h 4mph /  6.4km/h 86% 0in /  0.0mm
04:34 77.7 °F /  25.4 °C 73.2 °F /  22.9 °C 29.9in /  1012.3hPa NE 2mph /  3.2km/h 3.5mph /  5.6km/h 86% 0in /  0.0mm
04:39 77.7 °F /  25.4 °C 73.2 °F /  22.9 °C 29.9in /  1012.3hPa NE 2mph /  3.2km/h 4.6mph /  7.4km/h 86% 0in /  0.0mm
04:44 77.7 °F /  25.4 °C 73.2 °F /  22.9 °C 29.9in /  1012.3hPa NNE 2mph /  3.2km/h 5mph /  8km/h 86% 0in /  0.0mm
04:49 77.5 °F /  25.3 °C 73 °F /  22.8 °C 29.9in /  1012.3hPa NNE 2.1mph /  3.4km/h 5mph /  8km/h 86% 0in /  0.0mm
04:54 77.5 °F /  25.3 °C 73.4 °F /  23 °C 29.9in /  1012.1hPa NNE 2.4mph /  3.9km/h 5mph /  8km/h 87% 0in /  0.0mm
04:59 77.5 °F /  25.3 °C 73.4 °F /  23 °C 29.9in /  1012.1hPa NNE 2.2mph /  3.6km/h 3.5mph /  5.6km/h 87% 0in /  0.0mm
05:04 77.5 °F /  25.3 °C 73.4 °F /  23 °C 29.9in /  1012.2hPa North 1.8mph /  2.9km/h 3.6mph /  5.8km/h 87% 0in /  0.0mm
05:09 77.4 °F /  25.2 °C 73.2 °F /  22.9 °C 29.9in /  1012.2hPa NO 1.9mph /  3km/h 4.6mph /  7.4km/h 87% 0in /  0.0mm
05:14 77.4 °F /  25.2 °C 73.2 °F /  22.9 °C 29.9in /  1012.2hPa NO 2mph /  3.2km/h 5mph /  8km/h 87% 0in /  0.0mm
05:19 77.2 °F /  25.1 °C 73 °F /  22.8 °C 29.9in /  1012.3hPa NNO 1.9mph /  3.1km/h 4.6mph /  7.4km/h 87% 0in /  0.0mm
05:24 77.2 °F /  25.1 °C 73 °F /  22.8 °C 29.9in /  1012.3hPa NNO 1.8mph /  2.9km/h 5mph /  8km/h 87% 0in /  0.0mm
05:29 77.2 °F /  25.1 °C 73 °F /  22.8 °C 29.9in /  1012.3hPa NNO 1.4mph /  2.3km/h 3mph /  4.8km/h 87% 0in /  0.0mm
05:34 77.2 °F /  25.1 °C 73 °F /  22.8 °C 29.9in /  1012.3hPa Calm   3.6mph /  5.8km/h 87% 0in /  0.0mm
05:39 77.2 °F /  25.1 °C 73 °F /  22.8 °C 29.9in /  1012.2hPa NNO 0.4mph /  0.6km/h 4mph /  6.4km/h 87% 0in /  0.0mm
05:44 77.2 °F /  25.1 °C 72.9 °F /  22.7 °C 29.9in /  1012.2hPa NNO 1.8mph /  2.9km/h 4mph /  6.4km/h 87% 0in /  0.0mm
05:49 77 °F /  25 °C 72.9 °F /  22.7 °C 29.9in /  1012.3hPa NNO 1.4mph /  2.3km/h 3.1mph /  5km/h 87% 0in /  0.0mm
05:54 77 °F /  25 °C 72.7 °F /  22.6 °C 29.9in /  1012.3hPa Calm   6.9mph /  11.1km/h 87% 0in /  0.0mm
05:59 76.5 °F /  24.7 °C 72.3 °F /  22.4 °C 29.9in /  1012.3hPa ESE 1mph /  1.6km/h 7mph /  11.3km/h 87.1% 0in /  0.0mm
06:04 76.3 °F /  24.6 °C 72.5 °F /  22.5 °C 29.9in /  1012.3hPa ESE 4mph /  6.5km/h 6mph /  9.7km/h 88% 0in /  0.0mm
06:09 76.1 °F /  24.5 °C 72.3 °F /  22.4 °C 29.9in /  1012.3hPa ESE 3.7mph /  5.9km/h 5mph /  8km/h 88% 0in /  0.0mm
06:14 75.9 °F /  24.4 °C 72.1 °F /  22.3 °C 29.9in /  1012.3hPa ESE 2.4mph /  3.9km/h 5mph /  8km/h 88% 0in /  0.0mm
06:19 75.9 °F /  24.4 °C 72.3 °F /  22.4 °C 29.9in /  1012.3hPa ESE 1.9mph /  3km/h 2mph /  3.2km/h 88.9% 0in /  0.0mm
06:24 75.9 °F /  24.4 °C 72.5 °F /  22.5 °C 29.9in /  1012.1hPa Calm     89% 0in /  0.0mm
06:29 76.1 °F /  24.5 °C 72.5 °F /  22.5 °C 29.9in /  1012.1hPa Calm     89% 0in /  0.0mm
06:34 76.1 °F /  24.5 °C 72.7 °F /  22.6 °C 29.9in /  1012.1hPa Calm     89% 0in /  0.0mm
06:39 76.1 °F /  24.5 °C 72.7 °F /  22.6 °C 29.9in /  1012.1hPa Calm     89% 0in /  0.0mm
06:44 76.3 °F /  24.6 °C 72.9 °F /  22.7 °C 29.9in /  1012.1hPa Calm     89% 0in /  0.0mm
06:49 76.3 °F /  24.6 °C 72.9 °F /  22.7 °C 29.9in /  1012.2hPa Calm     88.9% 0in /  0.0mm
06:54 76.3 °F /  24.6 °C 72.7 °F /  22.6 °C 29.9in /  1012.2hPa Calm     88.6% 0in /  0.0mm
06:59 76.3 °F /  24.6 °C 72.9 °F /  22.7 °C 29.9in /  1012.2hPa Calm     89% 0in /  0.0mm
07:04 76.3 °F /  24.6 °C 72.5 °F /  22.5 °C 29.9in /  1012.4hPa Calm   3.5mph /  5.6km/h 88.4% 0in /  0.0mm
07:09 76.1 °F /  24.5 °C 72.3 °F /  22.4 °C 29.9in /  1012.4hPa Calm   3mph /  4.8km/h 88% 0in /  0.0mm
07:14 76.3 °F /  24.6 °C 72.5 °F /  22.5 °C 29.9in /  1012.4hPa Calm   2mph /  3.2km/h 88% 0in /  0.0mm
07:19 76.3 °F /  24.6 °C 72.5 °F /  22.5 °C 29.9in /  1012.5hPa Calm     88% 0in /  0.0mm
07:24 76.3 °F /  24.6 °C 72.5 °F /  22.5 °C 29.9in /  1012.5hPa Calm   2mph /  3.2km/h 88% 0in /  0.0mm
07:29 76.3 °F /  24.6 °C 72.5 °F /  22.5 °C 29.9in /  1012.5hPa Calm   3.6mph /  5.8km/h 88% 0in /  0.0mm
07:34 76.5 °F /  24.7 °C 72.5 °F /  22.5 °C 29.9in /  1012.5hPa Calm   4.7mph /  7.6km/h 87.6% 0in /  0.0mm
07:39 76.3 °F /  24.6 °C 72.1 °F /  22.3 °C 29.9in /  1012.5hPa Sur 0.6mph /  0.9km/h 5mph /  8km/h 87% 0in /  0.0mm
07:44 76.3 °F /  24.6 °C 72.1 °F /  22.3 °C 29.9in /  1012.5hPa SE 2.4mph /  3.9km/h 5mph /  8km/h 87% 0in /  0.0mm
07:49 76.5 °F /  24.7 °C 72.3 °F /  22.4 °C 29.9in /  1012.6hPa SE 2.2mph /  3.6km/h 3.6mph /  5.8km/h 87% 0in /  0.0mm
07:54 76.5 °F /  24.7 °C 72.3 °F /  22.4 °C 29.9in /  1012.6hPa SE 1.8mph /  2.9km/h 4.6mph /  7.4km/h 87% 0in /  0.0mm
07:59 76.6 °F /  24.8 °C 72.1 °F /  22.3 °C 29.9in /  1012.6hPa SSE 2mph /  3.2km/h 5.2mph /  8.4km/h 86.5% 0in /  0.0mm
08:04 76.6 °F /  24.8 °C 72.1 °F /  22.3 °C 29.9in /  1012.6hPa SE 2.4mph /  3.9km/h 5mph /  8km/h 86% 0in /  0.0mm
08:09 76.8 °F /  24.9 °C 72.1 °F /  22.3 °C 29.9in /  1012.6hPa SSE 2.5mph /  4km/h 5mph /  8km/h 85.3% 0in /  0.0mm
08:14 77 °F /  25 °C 72.1 °F /  22.3 °C 29.9in /  1012.6hPa SSE 2.9mph /  4.7km/h 5mph /  8km/h 85% 0in /  0.0mm
08:19 77.2 °F /  25.1 °C 72.3 °F /  22.4 °C 29.9in /  1012.7hPa SSO 2.7mph /  4.4km/h 5mph /  8km/h 85% 0in /  0.0mm
08:24 77.4 °F /  25.2 °C 72.1 °F /  22.3 °C 29.9in /  1012.7hPa SSO 2mph /  3.2km/h 5mph /  8km/h 84% 0in /  0.0mm
08:29 77.4 °F /  25.2 °C 72.1 °F /  22.3 °C 29.9in /  1012.7hPa SSO 2.2mph /  3.6km/h 5mph /  8km/h 84% 0in /  0.0mm
08:34 77.5 °F /  25.3 °C 72.3 °F /  22.4 °C 29.9in /  1012.9hPa Oeste 2.9mph /  4.7km/h 5mph /  8km/h 83.6% 0in /  0.0mm
08:39 77.9 °F /  25.5 °C 72.7 °F /  22.6 °C 29.9in /  1012.9hPa ONO 2.8mph /  4.5km/h 5mph /  8km/h 83.9% 0in /  0.0mm
08:44 78.1 °F /  25.6 °C 72.9 °F /  22.7 °C 29.9in /  1012.9hPa NO 2.4mph /  3.9km/h 5mph /  8km/h 84% 0in /  0.0mm
08:49 78.1 °F /  25.6 °C 72.9 °F /  22.7 °C 29.9in /  1013.1hPa ONO 2.5mph /  4km/h 5mph /  8km/h 84% 0in /  0.0mm
08:54 78.3 °F /  25.7 °C 72.9 °F /  22.7 °C 29.9in /  1013.1hPa Oeste 2.9mph /  4.7km/h 5mph /  8km/h 83.9% 0in /  0.0mm
08:59 78.3 °F /  25.7 °C 72.7 °F /  22.6 °C 29.9in /  1013.1hPa Oeste 2.9mph /  4.7km/h 5.2mph /  8.4km/h 83% 0in /  0.0mm
09:04 78.3 °F /  25.7 °C 72.7 °F /  22.6 °C 29.9in /  1013.1hPa OSO 2.9mph /  4.7km/h 5mph /  8km/h 83% 0in /  0.0mm
09:09 78.4 °F /  25.8 °C 72.9 °F /  22.7 °C 29.9in /  1013.1hPa Oeste 2.7mph /  4.3km/h 5mph /  8km/h 83% 0in /  0.0mm
09:14 78.6 °F /  25.9 °C 72.7 °F /  22.6 °C 29.9in /  1013.1hPa Oeste 2mph /  3.2km/h 5mph /  8km/h 82.1% 0in /  0.0mm
09:19 78.8 °F /  26 °C 72.9 °F /  22.7 °C 29.9in /  1013.3hPa OSO 2.2mph /  3.6km/h 5.2mph /  8.4km/h 82% 0in /  0.0mm
09:24 79 °F /  26.1 °C 72.9 °F /  22.7 °C 29.9in /  1013.3hPa OSO 3.1mph /  5km/h 5mph /  8km/h 82% 0in /  0.0mm
09:29 79.2 °F /  26.2 °C 73 °F /  22.8 °C 29.9in /  1013.3hPa Oeste 2.9mph /  4.7km/h 5mph /  8km/h 82% 0in /  0.0mm
09:34 79.3 °F /  26.3 °C 73 °F /  22.8 °C 29.9in /  1013.4hPa ONO 2.4mph /  3.9km/h 4.6mph /  7.4km/h 81.4% 0in /  0.0mm
09:39 79.7 °F /  26.5 °C 73.4 °F /  23 °C 29.9in /  1013.4hPa ONO 2.2mph /  3.6km/h 5.9mph /  9.5km/h 81.2% 0in /  0.0mm
09:44 80.1 °F /  26.7 °C 73 °F /  22.8 °C 29.9in /  1013.4hPa ONO 1.8mph /  2.9km/h 6mph /  9.7km/h 79.3% 0in /  0.0mm
09:49 80.2 °F /  26.8 °C 73 °F /  22.8 °C 29.9in /  1013.5hPa Oeste 1.9mph /  3km/h 6mph /  9.7km/h 78.7% 0in /  0.0mm
09:54 80.4 °F /  26.9 °C 73 °F /  22.8 °C 29.9in /  1013.5hPa SSO 2mph /  3.2km/h 5mph /  8km/h 78.3% 0in /  0.0mm
09:59 80.8 °F /  27.1 °C 73 °F /  22.8 °C 29.9in /  1013.5hPa Sur 2mph /  3.2km/h 6.9mph /  11.1km/h 77.5% 0in /  0.0mm
10:04 81 °F /  27.2 °C 73 °F /  22.8 °C 29.9in /  1013.5hPa SE 2mph /  3.2km/h 7mph /  11.3km/h 77% 0in /  0.0mm
10:09 81.1 °F /  27.3 °C 73.2 °F /  22.9 °C 29.9in /  1013.5hPa SSE 2.2mph /  3.6km/h 5mph /  8km/h 76.8% 0in /  0.0mm
10:14 81.5 °F /  27.5 °C 72.9 °F /  22.7 °C 29.9in /  1013.5hPa NE 3.1mph /  5km/h 7.4mph /  11.9km/h 75.4% 0in /  0.0mm
10:19 81.7 °F /  27.6 °C 72.7 °F /  22.6 °C 29.9in /  1013.6hPa ENE 3.2mph /  5.1km/h 7mph /  11.3km/h 74.2% 0in /  0.0mm
10:24 81.7 °F /  27.6 °C 72.3 °F /  22.4 °C 29.9in /  1013.6hPa ENE 3.6mph /  5.8km/h 7mph /  11.3km/h 73.4% 0in /  0.0mm
10:29 81.7 °F /  27.6 °C 72.7 °F /  22.6 °C 29.9in /  1013.6hPa ENE 3.7mph /  5.9km/h 7mph /  11.3km/h 74% 0in /  0.0mm
10:34 82 °F /  27.8 °C 72.5 °F /  22.5 °C 29.9in /  1013.6hPa ESE 4mph /  6.5km/h 7mph /  11.3km/h 73% 0in /  0.0mm
10:39 82.6 °F /  28.1 °C 72.9 °F /  22.7 °C 29.9in /  1013.6hPa ENE 3.8mph /  6.1km/h 6mph /  9.7km/h 72.8% 0in /  0.0mm
10:44 83.1 °F /  28.4 °C 72.7 °F /  22.6 °C 29.9in /  1013.6hPa ENE 2.9mph /  4.7km/h 10.4mph /  16.7km/h 70.9% 0in /  0.0mm
10:49 82.9 °F /  28.3 °C 72 °F /  22.2 °C 29.9in /  1013.6hPa Este 3.3mph /  5.3km/h 10mph /  16.1km/h 69.8% 0in /  0.0mm
10:54 83.1 °F /  28.4 °C 72 °F /  22.2 °C 29.9in /  1013.6hPa Este 4.7mph /  7.6km/h 8.5mph /  13.7km/h 69.4% 0in /  0.0mm
10:59 83.5 °F /  28.6 °C 72 °F /  22.2 °C 29.9in /  1013.6hPa ENE 4.5mph /  7.3km/h 9mph /  14.5km/h 68.4% 0in /  0.0mm
11:04 83.7 °F /  28.7 °C 71.4 °F /  21.9 °C 29.9in /  1013.6hPa Este 4mph /  6.5km/h 7.4mph /  11.9km/h 67% 0in /  0.0mm
11:09 83.7 °F /  28.7 °C 71.6 °F /  22 °C 29.9in /  1013.6hPa ENE 4.1mph /  6.6km/h 7mph /  11.3km/h 67.1% 0in /  0.0mm
11:14 84 °F /  28.9 °C 71.8 °F /  22.1 °C 29.9in /  1013.6hPa NNE 4.3mph /  6.9km/h 7mph /  11.3km/h 67% 0in /  0.0mm
11:19 84.4 °F /  29.1 °C 70.7 °F /  21.5 °C 29.9in /  1013.7hPa NE 4.4mph /  7.1km/h 10.4mph /  16.7km/h 63.7% 0in /  0.0mm
11:24 84.2 °F /  29 °C 70.2 °F /  21.2 °C 29.9in /  1013.7hPa NE 4.7mph /  7.6km/h 10mph /  16.1km/h 62.9% 0in /  0.0mm
11:29 84.4 °F /  29.1 °C 70 °F /  21.1 °C 29.9in /  1013.7hPa NE 4.8mph /  7.7km/h 9.2mph /  14.8km/h 62.2% 0in /  0.0mm
11:34 84.6 °F /  29.2 °C 70.2 °F /  21.2 °C 29.9in /  1013.9hPa North 5.2mph /  8.4km/h 9mph /  14.5km/h 62.1% 0in /  0.0mm
11:39 84.6 °F /  29.2 °C 70.5 °F /  21.4 °C 29.9in /  1013.9hPa NNE 5.1mph /  8.2km/h 8.5mph /  13.7km/h 63% 0in /  0.0mm
11:44 84.7 °F /  29.3 °C 70.2 °F /  21.2 °C 29.9in /  1013.9hPa NNE 4.7mph /  7.6km/h 9.2mph /  14.8km/h 61.7% 0in /  0.0mm
11:49 85.3 °F /  29.6 °C 69.8 °F /  21 °C 29.9in /  1013.9hPa ENE 4.6mph /  7.4km/h 9mph /  14.5km/h 60.1% 0in /  0.0mm
11:54 85.6 °F /  29.8 °C 70 °F /  21.1 °C 29.9in /  1013.8hPa ENE 4.3mph /  6.9km/h 11.5mph /  18.5km/h 59.8% 0in /  0.0mm
11:59 85.6 °F /  29.8 °C 69.8 °F /  21 °C 29.9in /  1013.8hPa ENE 4.7mph /  7.6km/h 12mph /  19.3km/h 59.1% 0in /  0.0mm
12:04 85.5 °F /  29.7 °C 69.6 °F /  20.9 °C 29.9in /  1013.8hPa NNE 5.9mph /  9.5km/h 10mph /  16.1km/h 59.4% 0in /  0.0mm
12:09 85.5 °F /  29.7 °C 69.6 °F /  20.9 °C 29.9in /  1013.8hPa NNO 5.5mph /  8.9km/h 9mph /  14.5km/h 59.5% 0in /  0.0mm
12:14 85.6 °F /  29.8 °C 69.8 °F /  21 °C 29.9in /  1013.8hPa SSE 4.3mph /  6.9km/h 7.4mph /  11.9km/h 59.3% 0in /  0.0mm
12:19 86.5 °F /  30.3 °C 69.3 °F /  20.7 °C 29.9in /  1013.9hPa NE 4mph /  6.5km/h 7mph /  11.3km/h 56.8% 0in /  0.0mm
12:24 87.1 °F /  30.6 °C 69.8 °F /  21 °C 29.9in /  1013.9hPa SO 3.1mph /  5km/h 7mph /  11.3km/h 56.7% 0in /  0.0mm
12:29 87.3 °F /  30.7 °C 70.2 °F /  21.2 °C 29.9in /  1013.9hPa NE 3.3mph /  5.3km/h 10.4mph /  16.7km/h 56.8% 0in /  0.0mm
12:34 87.4 °F /  30.8 °C 70.2 °F /  21.2 °C 29.9in /  1013.9hPa NE 4mph /  6.5km/h 10mph /  16.1km/h 56.6% 0in /  0.0mm
12:39 87.6 °F /  30.9 °C 69.3 °F /  20.7 °C 29.9in /  1013.9hPa NE 4mph /  6.5km/h 9.2mph /  14.8km/h 54.6% 0in /  0.0mm
12:44 87.6 °F /  30.9 °C 69.4 °F /  20.8 °C 29.9in /  1013.9hPa NNE 4mph /  6.5km/h 10.4mph /  16.7km/h 55.1% 0in /  0.0mm
12:49 87.3 °F /  30.7 °C 69.3 °F /  20.7 °C 29.9in /  1013.9hPa NNE 4.5mph /  7.3km/h 10.7mph /  17.2km/h 55.1% 0in /  0.0mm
12:54 87.1 °F /  30.6 °C 69.4 °F /  20.8 °C 29.9in /  1013.8hPa NNE 6.2mph /  10km/h 11mph /  17.7km/h 55.9% 0in /  0.0mm
12:59 87.4 °F /  30.8 °C 69.4 °F /  20.8 °C 29.9in /  1013.8hPa NNE 5.8mph /  9.4km/h 11.2mph /  18km/h 55.5% 0in /  0.0mm
13:04 87.4 °F /  30.8 °C 68.7 °F /  20.4 °C 29.9in /  1013.8hPa NE 4.7mph /  7.6km/h 13mph /  20.9km/h 53.9% 0in /  0.0mm
13:09 87.1 °F /  30.6 °C 68.4 °F /  20.2 °C 29.9in /  1013.7hPa NNE 4.8mph /  7.8km/h 13mph /  20.9km/h 54% 0in /  0.0mm
13:14 87.3 °F /  30.7 °C 68.5 °F /  20.3 °C 29.9in /  1013.7hPa ENE 5.4mph /  8.7km/h 12.7mph /  20.4km/h 54% 0in /  0.0mm
13:19 87.4 °F /  30.8 °C 68.7 °F /  20.4 °C 29.9in /  1013.7hPa NE 5.4mph /  8.7km/h 13mph /  20.9km/h 53.9% 0in /  0.0mm
13:24 87.4 °F /  30.8 °C 68.7 °F /  20.4 °C 29.9in /  1013.7hPa NE 5.4mph /  8.7km/h 10.4mph /  16.7km/h 53.9% 0in /  0.0mm
13:29 88 °F /  31.1 °C 68.4 °F /  20.2 °C 29.9in /  1013.7hPa NNE 5.5mph /  8.9km/h 11.5mph /  18.5km/h 52.4% 0in /  0.0mm
13:34 88 °F /  31.1 °C 68.2 °F /  20.1 °C 29.9in /  1013.7hPa North 5.9mph /  9.5km/h 12mph /  19.3km/h 52.2% 0in /  0.0mm
13:39 88.2 °F /  31.2 °C 68.7 °F /  20.4 °C 29.9in /  1013.6hPa North 5.5mph /  8.9km/h 13mph /  20.9km/h 52.7% 0in /  0.0mm
13:44 88.5 °F /  31.4 °C 68.5 °F /  20.3 °C 29.9in /  1013.6hPa NE 4.3mph /  6.9km/h 14mph /  22.5km/h 52.1% 0in /  0.0mm
13:49 88.3 °F /  31.3 °C 68 °F /  20 °C 29.9in /  1013.6hPa NNE 5.2mph /  8.3km/h 14mph /  22.5km/h 51.1% 0in /  0.0mm
13:54 88.3 °F /  31.3 °C 68 °F /  20 °C 29.9in /  1013.4hPa NNE 8.1mph /  13km/h 12mph /  19.3km/h 51.3% 0in /  0.0mm
13:59 88.3 °F /  31.3 °C 69.3 °F /  20.7 °C 29.9in /  1013.4hPa ENE 7.7mph /  12.4km/h 15mph /  24.1km/h 53.2% 0in /  0.0mm
14:04 88.3 °F /  31.3 °C 69.6 °F /  20.9 °C 29.9in /  1013.4hPa ENE 6.4mph /  10.3km/h 15mph /  24.1km/h 54% 0in /  0.0mm
14:09 88.3 °F /  31.3 °C 69.3 °F /  20.7 °C 29.9in /  1013.3hPa NE 6.6mph /  10.7km/h 13mph /  20.9km/h 53.4% 0in /  0.0mm
14:14 88.3 °F /  31.3 °C 68.9 °F /  20.5 °C 29.9in /  1013.3hPa NE 7.4mph /  11.9km/h 13mph /  20.9km/h 52.9% 0in /  0.0mm
14:19 88.3 °F /  31.3 °C 68.5 °F /  20.3 °C 29.9in /  1013.3hPa NE 7.3mph /  11.7km/h 13mph /  20.9km/h 51.9% 0in /  0.0mm
14:24 89.1 °F /  31.7 °C 68.9 °F /  20.5 °C 29.9in /  1013.2hPa NNE 6.9mph /  11.1km/h 15.2mph /  24.5km/h 51.8% 0in /  0.0mm
14:29 89.1 °F /  31.7 °C 70.2 °F /  21.2 °C 29.9in /  1013.2hPa NE 7mph /  11.3km/h 17mph /  27.4km/h 53.8% 0in /  0.0mm
14:34 89.1 °F /  31.7 °C 70 °F /  21.1 °C 29.9in /  1013.2hPa Este 7.4mph /  11.9km/h 17mph /  27.4km/h 53.5% 0in /  0.0mm
14:39 89.1 °F /  31.7 °C 70.2 °F /  21.2 °C 29.9in /  1013.2hPa NE 7.6mph /  12.3km/h 15mph /  24.1km/h 53.8% 0in /  0.0mm
14:44 88.9 °F /  31.6 °C 70 °F /  21.1 °C 29.9in /  1013.2hPa ENE 8.5mph /  13.7km/h 16.1mph /  25.9km/h 53.9% 0in /  0.0mm
14:49 88.9 °F /  31.6 °C 70 °F /  21.1 °C 29.9in /  1013.2hPa ENE 8.4mph /  13.5km/h 17.5mph /  28.2km/h 54% 0in /  0.0mm
14:54 88.5 °F /  31.4 °C 69.8 °F /  21 °C 29.9in /  1013.2hPa NE 8.1mph /  13km/h 17mph /  27.4km/h 54.1% 0in /  0.0mm
14:59 88.5 °F /  31.4 °C 69.8 °F /  21 °C 29.9in /  1013.2hPa NE 8.5mph /  13.7km/h 16mph /  25.7km/h 54% 0in /  0.0mm
15:04 88.3 °F /  31.3 °C 69.4 °F /  20.8 °C 29.9in /  1013.2hPa NE 9.7mph /  15.6km/h 15.2mph /  24.5km/h 53.7% 0in /  0.0mm
15:09 88.3 °F /  31.3 °C 69.6 °F /  20.9 °C 29.9in /  1013.2hPa NE 9.3mph /  14.9km/h 15mph /  24.1km/h 53.9% 0in /  0.0mm
15:14 88.5 °F /  31.4 °C 69.4 °F /  20.8 °C 29.9in /  1013.2hPa NE 7.6mph /  12.2km/h 14mph /  22.5km/h 53.2% 0in /  0.0mm
15:19 89.1 °F /  31.7 °C 69.6 °F /  20.9 °C 29.9in /  1013.3hPa NE 7.6mph /  12.2km/h 12mph /  19.3km/h 53% 0in /  0.0mm
15:24 88.9 °F /  31.6 °C 69.3 °F /  20.7 °C 29.9in /  1013.3hPa ENE 7.4mph /  11.9km/h 12mph /  19.3km/h 52.4% 0in /  0.0mm
15:29 89.1 °F /  31.7 °C 69.4 °F /  20.8 °C 29.9in /  1013.3hPa NE 7.1mph /  11.5km/h 12.7mph /  20.4km/h 52.6% 0in /  0.0mm
15:34 89.1 °F /  31.7 °C 69.6 °F /  20.9 °C 29.9in /  1013.3hPa NE 6.4mph /  10.3km/h 15mph /  24.1km/h 52.7% 0in /  0.0mm
15:39 89.1 °F /  31.7 °C 69.6 °F /  20.9 °C 29.9in /  1013.2hPa NE 6.9mph /  11.1km/h 15.9mph /  25.6km/h 53.1% 0in /  0.0mm
15:44 89.2 °F /  31.8 °C 69.6 °F /  20.9 °C 29.9in /  1013.2hPa ENE 8.7mph /  14km/h 16.3mph /  26.2km/h 52.4% 0in /  0.0mm
15:49 89.4 °F /  31.9 °C 69.6 °F /  20.9 °C 29.9in /  1013.2hPa ENE 8.7mph /  14km/h 16.1mph /  25.9km/h 52.4% 0in /  0.0mm
15:54 89.4 °F /  31.9 °C 69.8 °F /  21 °C 29.9in /  1013.0hPa ENE 8.7mph /  14km/h 17.3mph /  27.8km/h 52.7% 0in /  0.0mm
15:59 89.4 °F /  31.9 °C 69.6 °F /  20.9 °C 29.9in /  1013.0hPa ENE 9.1mph /  14.6km/h 17.3mph /  27.8km/h 52.2% 0in /  0.0mm
16:04 89.2 °F /  31.8 °C 69.8 °F /  21 °C 29.9in /  1013.0hPa ENE 10mph /  16.1km/h 18.4mph /  29.6km/h 52.8% 0in /  0.0mm
16:09 89.4 °F /  31.9 °C 69.8 °F /  21 °C 29.9in /  1012.9hPa NE 10.1mph /  16.3km/h 19mph /  30.6km/h 52.4% 0in /  0.0mm
16:14 89.4 °F /  31.9 °C 69.6 °F /  20.9 °C 29.9in /  1012.9hPa NE 10.7mph /  17.2km/h 19mph /  30.6km/h 52.5% 0in /  0.0mm
16:19 89.1 °F /  31.7 °C 69.4 °F /  20.8 °C 29.9in /  1013.1hPa NE 10.8mph /  17.4km/h 21.3mph /  34.3km/h 52.7% 0in /  0.0mm
16:24 88.5 °F /  31.4 °C 69.6 °F /  20.9 °C 29.9in /  1013.1hPa ENE 11.4mph /  18.4km/h 21mph /  33.8km/h 53.6% 0in /  0.0mm
16:29 88.7 °F /  31.5 °C 69.4 °F /  20.8 °C 29.9in /  1013.1hPa NE 11.4mph /  18.4km/h 21.9mph /  35.2km/h 53.1% 0in /  0.0mm
16:34 88.3 °F /  31.3 °C 69.3 °F /  20.7 °C 29.9in /  1013.1hPa NE 11.4mph /  18.4km/h 22mph /  35.4km/h 53.4% 0in /  0.0mm
16:39 88.2 °F /  31.2 °C 69.4 °F /  20.8 °C 29.9in /  1013.1hPa NE 11.6mph /  18.7km/h 19.6mph /  31.5km/h 53.9% 0in /  0.0mm
16:44 88.3 °F /  31.3 °C 69.1 °F /  20.6 °C 29.9in /  1013.1hPa NE 12.3mph /  19.8km/h 20mph /  32.2km/h 53.1% 0in /  0.0mm
16:49 88.2 °F /  31.2 °C 69.1 °F /  20.6 °C 29.9in /  1013.1hPa NE 12.2mph /  19.6km/h 25.3mph /  40.7km/h 53.5% 0in /  0.0mm
16:54 88.2 °F /  31.2 °C 69.3 °F /  20.7 °C 29.9in /  1013.1hPa NE 11.8mph /  19km/h 25.3mph /  40.7km/h 54% 0in /  0.0mm
16:59 87.6 °F /  30.9 °C 69.3 °F /  20.7 °C 29.9in /  1013.1hPa NE 12.4mph /  19.9km/h 25mph /  40.2km/h 54.5% 0in /  0.0mm
17:04 87.4 °F /  30.8 °C 69.6 °F /  20.9 °C 29.9in /  1013.1hPa NE 14mph /  22.5km/h 21mph /  33.8km/h 55.7% 0in /  0.0mm
17:09 87.3 °F /  30.7 °C 69.6 °F /  20.9 °C 29.9in /  1013.1hPa NE 13.7mph /  22km/h 23mph /  37km/h 56% 0in /  0.0mm
17:14 87.3 °F /  30.7 °C 70.2 °F /  21.2 °C 29.9in /  1013.1hPa NE 12.5mph /  20.1km/h 25.3mph /  40.7km/h 57% 0in /  0.0mm
17:19 87.3 °F /  30.7 °C 70.2 °F /  21.2 °C 29.9in /  1013.5hPa ENE 12.2mph /  19.7km/h 25.3mph /  40.7km/h 57% 0in /  0.0mm
17:24 87.3 °F /  30.7 °C 70.2 °F /  21.2 °C 29.9in /  1013.5hPa NE 11.4mph /  18.4km/h 21.9mph /  35.2km/h 57% 0in /  0.0mm
17:29 87.3 °F /  30.7 °C 70.2 °F /  21.2 °C 29.9in /  1013.5hPa ENE 11.4mph /  18.4km/h 22.3mph /  35.9km/h 57% 0in /  0.0mm
17:34 86.7 °F /  30.4 °C 70.2 °F /  21.2 °C 29.9in /  1013.5hPa ENE 11.4mph /  18.4km/h 22mph /  35.4km/h 57.9% 0in /  0.0mm
17:39 86.5 °F /  30.3 °C 70.5 °F /  21.4 °C 29.9in /  1013.5hPa ENE 11.1mph /  17.9km/h 19mph /  30.6km/h 58.9% 0in /  0.0mm
17:44 86.7 °F /  30.4 °C 70.5 °F /  21.4 °C 29.9in /  1013.5hPa ENE 10.2mph /  16.4km/h 17mph /  27.4km/h 58.9% 0in /  0.0mm
17:49 86.7 °F /  30.4 °C 70.3 °F /  21.3 °C 29.9in /  1013.8hPa ENE 10.3mph /  16.6km/h 23.5mph /  37.8km/h 58.2% 0in /  0.0mm
17:54 86.2 °F /  30.1 °C 70.2 °F /  21.2 °C 29.9in /  1013.8hPa NE 10.7mph /  17.2km/h 23mph /  37km/h 59.1% 0in /  0.0mm
17:59 86 °F /  30 °C 70.2 °F /  21.2 °C 29.9in /  1013.8hPa NE 11.2mph /  18.1km/h 22mph /  35.4km/h 59.3% 0in /  0.0mm
18:04 85.8 °F /  29.9 °C 70 °F /  21.1 °C 29.9in /  1013.9hPa NE 13mph /  20.9km/h 25.3mph /  40.7km/h 59.3% 0in /  0.0mm
18:09 85.5 °F /  29.7 °C 70 °F /  21.1 °C 29.9in /  1013.9hPa ENE 13.1mph /  21.1km/h 25mph /  40.2km/h 60% 0in /  0.0mm
18:14 85.3 °F /  29.6 °C 69.8 °F /  21 °C 29.9in /  1013.9hPa NE 13.5mph /  21.7km/h 24mph /  38.6km/h 60.1% 0in /  0.0mm
18:19 84.7 °F /  29.3 °C 70 °F /  21.1 °C 29.9in /  1013.9hPa NE 12.9mph /  20.7km/h 24.2mph /  38.9km/h 61.1% 0in /  0.0mm
18:24 84.7 °F /  29.3 °C 70.2 °F /  21.2 °C 29.9in /  1013.9hPa ENE 10.7mph /  17.2km/h 24mph /  38.6km/h 62% 0in /  0.0mm
18:29 84.7 °F /  29.3 °C 70 °F /  21.1 °C 29.9in /  1013.9hPa NE 10.4mph /  16.7km/h 20mph /  32.2km/h 61.4% 0in /  0.0mm
18:34 84.7 °F /  29.3 °C 70 °F /  21.1 °C 29.9in /  1014.0hPa ENE 8.7mph /  14km/h 17mph /  27.4km/h 61.3% 0in /  0.0mm
18:39 84.6 °F /  29.2 °C 70.2 °F /  21.2 °C 29.9in /  1014.0hPa NE 8.6mph /  13.9km/h 16mph /  25.7km/h 62% 0in /  0.0mm
18:44 84.4 °F /  29.1 °C 70 °F /  21.1 °C 29.9in /  1014.0hPa ENE 8.5mph /  13.7km/h 20.7mph /  33.3km/h 62% 0in /  0.0mm
18:49 84.4 °F /  29.1 °C 70.2 °F /  21.2 °C 30in /  1014.3hPa ENE 8.5mph /  13.7km/h 21mph /  33.8km/h 62.5% 0in /  0.0mm
18:54 84.2 °F /  29 °C 70.3 °F /  21.3 °C 30in /  1014.3hPa ENE 8.7mph /  14km/h 18.4mph /  29.6km/h 63.2% 0in /  0.0mm
18:59 84 °F /  28.9 °C 70.2 °F /  21.2 °C 30in /  1014.3hPa Este 9mph /  14.5km/h 20.7mph /  33.3km/h 63.2% 0in /  0.0mm
19:04 83.8 °F /  28.8 °C 70.3 °F /  21.3 °C 30in /  1014.3hPa ENE 10mph /  16.1km/h 21mph /  33.8km/h 64% 0in /  0.0mm
19:09 84.2 °F /  29 °C 70.5 °F /  21.4 °C 30in /  1014.2hPa ENE 9.7mph /  15.6km/h 17mph /  27.4km/h 63.8% 0in /  0.0mm
19:14 84.4 °F /  29.1 °C 70.3 °F /  21.3 °C 30in /  1014.2hPa ENE 8.5mph /  13.7km/h 24.6mph /  39.6km/h 63% 0in /  0.0mm
19:19 84 °F /  28.9 °C 70.3 °F /  21.3 °C 30in /  1014.6hPa ENE 8.9mph /  14.3km/h 25mph /  40.2km/h 63.5% 0in /  0.0mm
19:24 83.8 °F /  28.8 °C 70.7 °F /  21.5 °C 30in /  1014.6hPa ENE 10.2mph /  16.4km/h 18.4mph /  29.6km/h 64.9% 0in /  0.0mm
19:29 83.7 °F /  28.7 °C 70.7 °F /  21.5 °C 30in /  1014.6hPa ENE 10.3mph /  16.6km/h 18.4mph /  29.6km/h 65.4% 0in /  0.0mm
19:34 83.5 °F /  28.6 °C 71.1 °F /  21.7 °C 30in /  1014.9hPa NE 10.7mph /  17.2km/h 18mph /  29km/h 66.3% 0in /  0.0mm
19:39 83.1 °F /  28.4 °C 71.1 °F /  21.7 °C 30in /  1014.9hPa NE 10.6mph /  17km/h 19.7mph /  31.7km/h 67.1% 0in /  0.0mm
19:44 82.9 °F /  28.3 °C 71.2 °F /  21.8 °C 30in /  1014.9hPa NE 10mph /  16.1km/h 20mph /  32.2km/h 68% 0in /  0.0mm
19:49 82.9 °F /  28.3 °C 71.6 °F /  22 °C 30in /  1015.0hPa NE 9.8mph /  15.8km/h 14.7mph /  23.7km/h 68.8% 0in /  0.0mm
19:54 82.9 °F /  28.3 °C 71.8 °F /  22.1 °C 30in /  1015.0hPa NE 9.2mph /  14.8km/h 20.8mph /  33.5km/h 69.4% 0in /  0.0mm
19:59 82.8 °F /  28.2 °C 72.1 °F /  22.3 °C 30in /  1015.0hPa NE 9.7mph /  15.6km/h 21mph /  33.8km/h 70.6% 0in /  0.0mm
20:04 82.2 °F /  27.9 °C 71.8 °F /  22.1 °C 30in /  1015.0hPa NE 11.2mph /  18km/h 21mph /  33.8km/h 70.7% 0in /  0.0mm
20:09 82.2 °F /  27.9 °C 71.4 °F /  21.9 °C 30in /  1015.0hPa NE 10.6mph /  17.1km/h 18mph /  29km/h 70% 0in /  0.0mm
20:14 82.2 °F /  27.9 °C 71.4 °F /  21.9 °C 30in /  1015.0hPa NE 8.7mph /  14km/h 17.8mph /  28.6km/h 70% 0in /  0.0mm
20:19 82 °F /  27.8 °C 71.2 °F /  21.8 °C 30in /  1015.0hPa ENE 8.9mph /  14.4km/h 18.4mph /  29.6km/h 70% 0in /  0.0mm
20:24 81.9 °F /  27.7 °C 71.1 °F /  21.7 °C 30in /  1014.9hPa NE 9.7mph /  15.6km/h 17.5mph /  28.2km/h 69.8% 0in /  0.0mm
20:29 81.9 °F /  27.7 °C 70.9 °F /  21.6 °C 30in /  1014.9hPa NE 9.6mph /  15.4km/h 18.5mph /  29.8km/h 69.4% 0in /  0.0mm
20:34 81.7 °F /  27.6 °C 70.7 °F /  21.5 °C 30in /  1015.2hPa NE 9.2mph /  14.8km/h 19mph /  30.6km/h 69.6% 0in /  0.0mm
20:39 81.7 °F /  27.6 °C 70.7 °F /  21.5 °C 30in /  1015.2hPa NE 9.4mph /  15.1km/h 18.4mph /  29.6km/h 69.4% 0in /  0.0mm
20:44 81.7 °F /  27.6 °C 70.5 °F /  21.4 °C 30in /  1015.2hPa NE 10mph /  16.1km/h 19.7mph /  31.7km/h 69.1% 0in /  0.0mm
20:49 81.3 °F /  27.4 °C 70.5 °F /  21.4 °C 30in /  1015.7hPa NE 10.3mph /  16.6km/h 20mph /  32.2km/h 69.5% 0in /  0.0mm
20:54 81.1 °F /  27.3 °C 70.5 °F /  21.4 °C 30in /  1015.7hPa NE 11.4mph /  18.4km/h 20.7mph /  33.3km/h 70.3% 0in /  0.0mm
20:59 81.1 °F /  27.3 °C 70.7 °F /  21.5 °C 30in /  1015.7hPa NE 11.4mph /  18.4km/h 21mph /  33.8km/h 71% 0in /  0.0mm
21:04 81 °F /  27.2 °C 70.7 °F /  21.5 °C 30in /  1015.7hPa NE 11.4mph /  18.4km/h 20mph /  32.2km/h 71% 0in /  0.0mm
21:09 81 °F /  27.2 °C 70.7 °F /  21.5 °C 30in /  1015.6hPa NE 11.4mph /  18.3km/h 21.5mph /  34.6km/h 71% 0in /  0.0mm
21:14 81 °F /  27.2 °C 70.7 °F /  21.5 °C 30in /  1015.6hPa NE 11.2mph /  18km/h 22mph /  35.4km/h 71% 0in /  0.0mm
21:19 80.8 °F /  27.1 °C 70.3 °F /  21.3 °C 30in /  1015.7hPa NE 11.4mph /  18.3km/h 22mph /  35.4km/h 70.4% 0in /  0.0mm
21:24 80.8 °F /  27.1 °C 70.2 °F /  21.2 °C 30in /  1015.7hPa NE 11.8mph /  19km/h 22mph /  35.4km/h 70% 0in /  0.0mm
21:29 80.8 °F /  27.1 °C 70.2 °F /  21.2 °C 30in /  1015.7hPa NE 11.4mph /  18.4km/h 18mph /  29km/h 70% 0in /  0.0mm
21:34 80.8 °F /  27.1 °C 70.2 °F /  21.2 °C 30in /  1015.7hPa NE 10mph /  16.1km/h 16mph /  25.7km/h 70% 0in /  0.0mm
21:39 80.8 °F /  27.1 °C 70.2 °F /  21.2 °C 30in /  1015.6hPa NE 9.8mph /  15.8km/h 16.1mph /  25.9km/h 70% 0in /  0.0mm
21:44 80.8 °F /  27.1 °C 70.2 °F /  21.2 °C 30in /  1015.6hPa NE 9.2mph /  14.8km/h 16mph /  25.7km/h 70% 0in /  0.0mm
21:49 80.8 °F /  27.1 °C 70 °F /  21.1 °C 30in /  1015.7hPa NE 8.8mph /  14.2km/h 15mph /  24.1km/h 70% 0in /  0.0mm
21:54 80.6 °F /  27 °C 70 °F /  21.1 °C 30in /  1015.7hPa NE 7.6mph /  12.2km/h 15mph /  24.1km/h 70% 0in /  0.0mm
21:59 80.6 °F /  27 °C 70 °F /  21.1 °C 30in /  1015.7hPa NE 7.5mph /  12km/h 14mph /  22.5km/h 70% 0in /  0.0mm
22:04 80.6 °F /  27 °C 69.8 °F /  21 °C 30in /  1016.1hPa NE 6.9mph /  11.1km/h 17.8mph /  28.6km/h 70% 0in /  0.0mm
22:09 80.4 °F /  26.9 °C 69.6 °F /  20.9 °C 30in /  1016.1hPa NNE 7.1mph /  11.4km/h 18.4mph /  29.6km/h 70% 0in /  0.0mm
22:14 80.4 °F /  26.9 °C 69.8 °F /  21 °C 30in /  1016.1hPa NE 7.6mph /  12.2km/h 14mph /  22.5km/h 70.3% 0in /  0.0mm
22:19 80.4 °F /  26.9 °C 70.2 °F /  21.2 °C 30in /  1016.4hPa NNE 7.3mph /  11.7km/h 14mph /  22.5km/h 71% 0in /  0.0mm
22:24 80.2 °F /  26.8 °C 70.2 °F /  21.2 °C 30in /  1016.4hPa NE 5.9mph /  9.5km/h 10mph /  16.1km/h 71% 0in /  0.0mm
22:29 80.2 °F /  26.8 °C 70 °F /  21.1 °C 30in /  1016.4hPa NE 5.9mph /  9.5km/h 12.7mph /  20.4km/h 71% 0in /  0.0mm
22:34 80.1 °F /  26.7 °C 70.2 °F /  21.2 °C 30in /  1016.4hPa NE 5.9mph /  9.5km/h 13.8mph /  22.2km/h 71.9% 0in /  0.0mm
22:39 80.1 °F /  26.7 °C 70.2 °F /  21.2 °C 30in /  1016.3hPa NE 6.3mph /  10.1km/h 14mph /  22.5km/h 72% 0in /  0.0mm
22:44 79.9 °F /  26.6 °C 70 °F /  21.1 °C 30in /  1016.3hPa NE 7.6mph /  12.2km/h 12.5mph /  20.1km/h 72.1% 0in /  0.0mm
22:49 79.9 °F /  26.6 °C 70.3 °F /  21.3 °C 30in /  1016.4hPa NE 7.6mph /  12.2km/h 14.5mph /  23.3km/h 73% 0in /  0.0mm
22:54 79.9 °F /  26.6 °C 70.3 °F /  21.3 °C 30in /  1016.4hPa NE 7.4mph /  11.9km/h 15mph /  24.1km/h 73% 0in /  0.0mm
22:59 79.9 °F /  26.6 °C 70.3 °F /  21.3 °C 30in /  1016.4hPa NE 7.5mph /  12km/h 14mph /  22.5km/h 73% 0in /  0.0mm
23:04 79.7 °F /  26.5 °C 70.5 °F /  21.4 °C 30in /  1016.7hPa NNE 7.6mph /  12.2km/h 12mph /  19.3km/h 73.8% 0in /  0.0mm
23:09 79.5 °F /  26.4 °C 70.2 °F /  21.2 °C 30in /  1016.7hPa NNO 7.1mph /  11.4km/h 11mph /  17.7km/h 73.4% 0in /  0.0mm
23:14 79.5 °F /  26.4 °C 70.2 °F /  21.2 °C 30in /  1016.7hPa NO 5.4mph /  8.7km/h 7.6mph /  12.2km/h 73.3% 0in /  0.0mm
23:19 79.3 °F /  26.3 °C 70.2 °F /  21.2 °C 30in /  1016.8hPa NO 5.2mph /  8.3km/h 8.1mph /  13km/h 73.9% 0in /  0.0mm
23:24 79.2 °F /  26.2 °C 70.2 °F /  21.2 °C 30in /  1016.8hPa NO 4.3mph /  6.9km/h 9.7mph /  15.6km/h 74% 0in /  0.0mm
23:29 78.8 °F /  26 °C 69.8 °F /  21 °C 30in /  1016.8hPa NO 4.5mph /  7.3km/h 11.5mph /  18.5km/h 74% 0in /  0.0mm
23:34 78.4 °F /  25.8 °C 69.6 °F /  20.9 °C 30in /  1016.9hPa NO 5.4mph /  8.7km/h 12mph /  19.3km/h 74% 0in /  0.0mm
23:39 78.4 °F /  25.8 °C 69.4 °F /  20.8 °C 30in /  1016.9hPa NO 5.4mph /  8.7km/h 10.4mph /  16.7km/h 74% 0in /  0.0mm
23:44 78.4 °F /  25.8 °C 69.4 °F /  20.8 °C 30in /  1016.9hPa NNO 5.4mph /  8.7km/h 9mph /  14.5km/h 74% 0in /  0.0mm
23:49 78.4 °F /  25.8 °C 69.4 °F /  20.8 °C 30in /  1016.9hPa NO 5mph /  8.1km/h 6.2mph /  10km/h 74% 0in /  0.0mm
23:54 78.4 °F /  25.8 °C 69.4 °F /  20.8 °C 30in /  1016.9hPa NO 3.6mph /  5.8km/h 6mph /  9.7km/h 74% 0in /  0.0mm
23:59 78.4 °F /  25.8 °C 69.6 °F /  20.9 °C 30in /  1016.9hPa NO 3.3mph /  5.3km/h 5mph /  8km/h 74% 0in /  0.0mm
Murcia-Puente Tocinos, España
Compliments of Weather Underground - 3 mb

La estación de MeteoMurcia.com, publica sus datos en los siguientes proyectos:

Weather Underground PWS IMURCIAP2 Meteoclimatic www.awekas.at

W3Counter
Web Analytics